Miami — WDF6958 — position and weather

sailwx.info

Track history (hours):
 
Tides and Currents Weather Stations Pressure Air Temp Water Temp Dewpoint Dewpoint Depression Visibility Wind Speed Wind Dir Waves Ship Positions

Miami

Owner: Kirby Inland Marine LP, Houston, TX. More information available from US FCC via Universal Licensing System and Coast Guard Vessel Documentation Center.

Last reported at 2014-Oct-31 07:24 UTC. Time now 2014-Oct-31 08:23 UTC.
Position N 25°46' W 080°09'.

Length 23 m; draft 4 m.

Type: Other ship. MMSI: 367479630.

Date/timePositionNaut miles runAvg speedWind from/ knotsBaromVisibWave heightAir tempDewpointWater temp
2014-Oct-31 07:24N 25°46' W 080°09'0 0.0
2014-Oct-30 19:31N 25°46' W 080°09'  
2014-Oct-27 23:22N 25°46' W 080°09'2 0.1
2014-Oct-26 19:27N 25°47' W 080°10'0 0.0
2014-Oct-26 18:20N 25°47' W 080°10'0 0.0
2014-Oct-26 17:24N 25°47' W 080°10'0 0.1
2014-Oct-26 15:16N 25°47' W 080°10'0 0.0
2014-Oct-26 14:17N 25°47' W 080°10'0 0.0
2014-Oct-26 12:33N 25°47' W 080°10'0 0.0
2014-Oct-26 11:29N 25°47' W 080°10'0 0.0
2014-Oct-26 10:31N 25°47' W 080°10'3 2.1
2014-Oct-26 09:18N 25°46' W 080°07'3 3.4
2014-Oct-26 08:32N 25°47' W 080°10'0 0.0
2014-Oct-26 07:18N 25°47' W 080°10'0 0.0
2014-Oct-26 06:32N 25°47' W 080°10'0 0.0
2014-Oct-26 05:31N 25°47' W 080°10'0 0.0
2014-Oct-26 04:26N 25°47' W 080°10'0 0.0
2014-Oct-26 03:32N 25°47' W 080°10'0 0.0
2014-Oct-26 02:33N 25°47' W 080°10'0 0.0
2014-Oct-26 01:33N 25°47' W 080°10'0 0.0
2014-Oct-26 00:33N 25°47' W 080°10'0 0.0
2014-Oct-25 23:24N 25°47' W 080°10'0 0.0
2014-Oct-25 22:33N 25°47' W 080°10'0 0.0
2014-Oct-25 21:33N 25°47' W 080°10'0 0.0
2014-Oct-25 20:33N 25°47' W 080°10'0 0.0
2014-Oct-25 19:27N 25°47' W 080°10'0 0.3
2014-Oct-25 18:14N 25°47' W 080°10'0 0.2
2014-Oct-25 17:33N 25°47' W 080°10'0 0.0
2014-Oct-25 15:33N 25°47' W 080°10'0 0.0
2014-Oct-25 13:26N 25°47' W 080°10'0 0.0
2014-Oct-25 12:33N 25°47' W 080°10'0 0.2
2014-Oct-25 11:25N 25°47' W 080°11'1 0.0
2014-Oct-24 21:13N 25°47' W 080°10'2 0.9
2014-Oct-24 19:31N 25°46' W 080°09'0 0.0
2014-Oct-24 18:24N 25°46' W 080°09'2 1.8
2014-Oct-24 17:27N 25°47' W 080°10'0 0.0
2014-Oct-24 16:31N 25°47' W 080°10'0 0.0
2014-Oct-24 15:33N 25°47' W 080°10'0 0.0
2014-Oct-24 14:33N 25°47' W 080°10'0 0.0
2014-Oct-24 13:21N 25°47' W 080°10'0 0.0
2014-Oct-24 12:33N 25°47' W 080°10'2 0.0
2014-Oct-22 14:12N 25°46' W 080°09'2 3.4
2014-Oct-22 13:33N 25°47' W 080°11'0 0.0
2014-Oct-22 12:33N 25°47' W 080°11'0 0.2
2014-Oct-22 11:32N 25°47' W 080°11'0 0.2
2014-Oct-22 10:24N 25°47' W 080°10'  
Track history (hours):
 
Tides and Currents Weather Stations Pressure Air Temp Water Temp Dewpoint Dewpoint Depression Visibility Wind Speed Wind Dir Waves Ship Positions

Miami

Owner: Kirby Inland Marine LP, Houston, TX. More information available from US FCC via Universal Licensing System and Coast Guard Vessel Documentation Center.

Last reported at 2014-Oct-31 07:24 UTC. Time now 2014-Oct-31 08:23 UTC.
Position N 25°46' W 080°09'.

Length 23 m; draft 4 m.

Type: Other ship. MMSI: 367479630.

Date/timePositionNaut miles runAvg speedWind from/ knotsBaromVisibWave heightAir tempDewpointWater temp
2014-Oct-31 07:24N 25°46' W 080°09'0 0.0
2014-Oct-30 19:31N 25°46' W 080°09'  
2014-Oct-27 23:22N 25°46' W 080°09'2 0.1
2014-Oct-26 19:27N 25°47' W 080°10'0 0.0
2014-Oct-26 18:20N 25°47' W 080°10'0 0.0
2014-Oct-26 17:24N 25°47' W 080°10'0 0.1
2014-Oct-26 15:16N 25°47' W 080°10'0 0.0
2014-Oct-26 14:17N 25°47' W 080°10'0 0.0
2014-Oct-26 12:33N 25°47' W 080°10'0 0.0
2014-Oct-26 11:29N 25°47' W 080°10'0 0.0
2014-Oct-26 10:31N 25°47' W 080°10'3 2.1
2014-Oct-26 09:18N 25°46' W 080°07'3 3.4
2014-Oct-26 08:32N 25°47' W 080°10'0 0.0
2014-Oct-26 07:18N 25°47' W 080°10'0 0.0
2014-Oct-26 06:32N 25°47' W 080°10'0 0.0
2014-Oct-26 05:31N 25°47' W 080°10'0 0.0
2014-Oct-26 04:26N 25°47' W 080°10'0 0.0
2014-Oct-26 03:32N 25°47' W 080°10'0 0.0
2014-Oct-26 02:33N 25°47' W 080°10'0 0.0
2014-Oct-26 01:33N 25°47' W 080°10'0 0.0
2014-Oct-26 00:33N 25°47' W 080°10'0 0.0
2014-Oct-25 23:24N 25°47' W 080°10'0 0.0
2014-Oct-25 22:33N 25°47' W 080°10'0 0.0
2014-Oct-25 21:33N 25°47' W 080°10'0 0.0
2014-Oct-25 20:33N 25°47' W 080°10'0 0.0
2014-Oct-25 19:27N 25°47' W 080°10'0 0.3
2014-Oct-25 18:14N 25°47' W 080°10'0 0.2
2014-Oct-25 17:33N 25°47' W 080°10'0 0.0
2014-Oct-25 15:33N 25°47' W 080°10'0 0.0
2014-Oct-25 13:26N 25°47' W 080°10'0 0.0
2014-Oct-25 12:33N 25°47' W 080°10'0 0.2
2014-Oct-25 11:25N 25°47' W 080°11'1 0.0
2014-Oct-24 21:13N 25°47' W 080°10'2 0.9
2014-Oct-24 19:31N 25°46' W 080°09'0 0.0
2014-Oct-24 18:24N 25°46' W 080°09'2 1.8
2014-Oct-24 17:27N 25°47' W 080°10'0 0.0
2014-Oct-24 16:31N 25°47' W 080°10'0 0.0
2014-Oct-24 15:33N 25°47' W 080°10'0 0.0
2014-Oct-24 14:33N 25°47' W 080°10'0 0.0
2014-Oct-24 13:21N 25°47' W 080°10'0 0.0
2014-Oct-24 12:33N 25°47' W 080°10'2 0.0
2014-Oct-22 14:12N 25°46' W 080°09'2 3.4
2014-Oct-22 13:33N 25°47' W 080°11'0 0.0
2014-Oct-22 12:33N 25°47' W 080°11'0 0.2
2014-Oct-22 11:32N 25°47' W 080°11'0 0.2
2014-Oct-22 10:24N 25°47' W 080°10'  

Dump ship's entire track history